createdAt,value
2023-02-19T00:00:02.454Z,7.82
2023-02-19T00:01:02.449Z,7.84
2023-02-19T00:02:02.458Z,7.82
2023-02-19T00:03:02.387Z,7.84
2023-02-19T00:04:03.203Z,7.82
2023-02-19T00:05:02.564Z,7.81
2023-02-19T00:06:02.387Z,7.81
2023-02-19T00:07:02.360Z,7.81
2023-02-19T00:08:02.358Z,7.79
2023-02-19T00:09:02.320Z,7.79
2023-02-19T00:10:02.319Z,7.79
2023-02-19T00:11:02.333Z,7.79
2023-02-19T00:12:02.276Z,7.78
2023-02-19T00:13:02.394Z,7.79
2023-02-19T00:14:02.281Z,7.79
2023-02-19T00:15:02.296Z,7.78
2023-02-19T00:16:02.274Z,7.79
2023-02-19T00:17:02.226Z,7.78
2023-02-19T00:18:02.197Z,7.78
2023-02-19T00:19:02.180Z,7.78
2023-02-19T00:20:02.180Z,7.78
2023-02-19T00:21:02.196Z,7.72
2023-02-19T00:22:02.137Z,7.74
2023-02-19T00:23:02.168Z,7.71
2023-02-19T00:24:02.116Z,7.69
2023-02-19T00:25:02.213Z,7.63
2023-02-19T00:26:17.189Z,7.62
2023-02-19T00:27:03.118Z,7.56
2023-02-19T00:28:02.119Z,7.55
2023-02-19T00:29:02.377Z,7.50
2023-02-19T00:30:02.195Z,7.47
2023-02-19T00:31:02.411Z,7.45
2023-02-19T00:32:02.208Z,7.41
2023-02-19T00:33:02.122Z,7.41
2023-02-19T00:34:02.996Z,7.41
2023-02-19T00:35:02.014Z,7.37
2023-02-19T00:36:02.006Z,7.37
2023-02-19T00:37:01.997Z,7.34
2023-02-19T00:38:01.935Z,7.34
2023-02-19T00:39:02.047Z,7.31
2023-02-19T00:40:01.903Z,7.23
2023-02-19T00:41:01.927Z,7.20
2023-02-19T00:42:01.886Z,7.19
2023-02-19T00:43:01.899Z,7.19
2023-02-19T00:44:02.937Z,7.16
2023-02-19T00:45:01.879Z,7.13
2023-02-19T00:46:01.942Z,7.08
2023-02-19T00:47:01.870Z,7.05
2023-02-19T00:48:01.804Z,7.02
2023-02-19T00:49:01.833Z,7.02
2023-02-19T00:50:01.962Z,6.99
2023-02-19T00:51:01.828Z,6.97
2023-02-19T00:52:01.868Z,6.97
2023-02-19T00:53:01.746Z,6.97
2023-02-19T00:54:01.739Z,6.98
2023-02-19T00:55:02.800Z,6.99
2023-02-19T00:56:02.817Z,6.99
2023-02-19T00:57:01.756Z,6.98
2023-02-19T00:58:02.609Z,6.98
2023-02-19T00:59:01.704Z,6.98
2023-02-19T01:00:01.725Z,6.98
2023-02-19T01:01:01.759Z,6.97
2023-02-19T01:02:01.642Z,6.97
2023-02-19T01:03:01.639Z,6.95
2023-02-19T01:04:01.754Z,6.95
2023-02-19T01:05:01.651Z,6.95
2023-02-19T01:06:01.991Z,6.95
2023-02-19T01:07:01.643Z,6.98
2023-02-19T01:08:01.590Z,6.95
2023-02-19T01:09:01.669Z,6.91
2023-02-19T01:10:01.833Z,6.91
2023-02-19T01:11:01.591Z,6.90
2023-02-19T01:12:01.521Z,6.91
2023-02-19T01:13:01.502Z,6.90
2023-02-19T01:14:01.561Z,6.87
2023-02-19T01:15:01.480Z,6.87
2023-02-19T01:16:02.455Z,6.89
2023-02-19T01:17:01.531Z,6.89
2023-02-19T01:18:01.441Z,6.89
2023-02-19T01:19:01.457Z,6.90
2023-02-19T01:20:01.566Z,6.90
2023-02-19T01:21:01.366Z,6.89
2023-02-19T01:22:01.413Z,6.91
2023-02-19T01:23:01.399Z,6.91
2023-02-19T01:24:02.322Z,6.89
2023-02-19T01:25:01.365Z,6.90
2023-02-19T01:26:01.342Z,6.86
2023-02-19T01:27:01.329Z,6.84
2023-02-19T01:28:01.337Z,6.84
2023-02-19T01:29:02.190Z,6.83
2023-02-19T01:30:01.295Z,6.83
2023-02-19T01:31:01.908Z,6.84
2023-02-19T01:32:01.458Z,6.83
2023-02-19T01:33:01.329Z,6.81
2023-02-19T01:34:01.228Z,6.81
2023-02-19T01:35:01.259Z,6.83
2023-02-19T01:36:01.226Z,6.80
2023-02-19T01:37:02.709Z,6.80
2023-02-19T01:38:01.349Z,6.79
2023-02-19T01:39:01.195Z,6.80
2023-02-19T01:40:01.148Z,6.77
2023-02-19T01:41:01.159Z,6.79
2023-02-19T01:42:01.233Z,6.79
2023-02-19T01:43:01.096Z,6.76
2023-02-19T01:44:01.237Z,6.77
2023-02-19T01:45:01.374Z,6.76
2023-02-19T01:46:01.298Z,6.76
2023-02-19T01:47:01.082Z,6.77
2023-02-19T01:48:01.072Z,6.76
2023-02-19T01:49:01.122Z,6.76
2023-02-19T01:50:01.008Z,6.73
2023-02-19T01:51:01.034Z,6.73
2023-02-19T01:52:01.026Z,6.73
2023-02-19T01:53:01.938Z,6.73
2023-02-19T01:54:00.990Z,6.73
2023-02-19T01:55:00.998Z,6.73
2023-02-19T01:56:00.957Z,6.73
2023-02-19T01:57:00.928Z,6.72
2023-02-19T01:58:01.144Z,6.73
2023-02-19T01:59:00.932Z,6.72
2023-02-19T02:00:00.937Z,6.73
2023-02-19T02:01:00.980Z,6.72
2023-02-19T02:02:00.923Z,6.73
2023-02-19T02:03:00.926Z,6.76
2023-02-19T02:04:00.874Z,6.76
2023-02-19T02:05:00.824Z,6.76
2023-02-19T02:06:00.899Z,6.76
2023-02-19T02:07:00.836Z,6.72
2023-02-19T02:08:00.868Z,6.72
2023-02-19T02:09:00.760Z,6.72
2023-02-19T02:10:00.750Z,6.72
2023-02-19T02:11:00.838Z,6.73
2023-02-19T02:12:00.814Z,6.72
2023-02-19T02:13:00.784Z,6.71
2023-02-19T02:14:00.722Z,6.69
2023-02-19T02:15:01.150Z,6.68
2023-02-19T02:16:01.791Z,6.68
2023-02-19T02:17:01.495Z,6.69
2023-02-19T02:18:00.675Z,6.68
2023-02-19T02:19:00.723Z,6.69
2023-02-19T02:20:00.650Z,6.69
2023-02-19T02:21:00.714Z,6.68
2023-02-19T02:22:00.620Z,6.65
2023-02-19T02:23:00.606Z,6.66
2023-02-19T02:24:00.864Z,6.65
2023-02-19T02:25:00.604Z,6.63
2023-02-19T02:26:00.586Z,6.63
2023-02-19T02:27:01.755Z,6.63
2023-02-19T02:28:01.665Z,6.62
2023-02-19T02:29:00.655Z,6.61
2023-02-19T02:30:00.623Z,6.59
2023-02-19T02:31:00.557Z,6.59
2023-02-19T02:32:00.565Z,6.58
2023-02-19T02:33:00.668Z,6.54
2023-02-19T02:34:00.541Z,6.54
2023-02-19T02:35:00.429Z,6.51
2023-02-19T02:36:00.668Z,6.48
2023-02-19T02:37:00.459Z,6.47
2023-02-19T02:38:00.439Z,6.46
2023-02-19T02:39:00.434Z,6.46
2023-02-19T02:40:00.620Z,6.46
2023-02-19T02:41:00.389Z,6.44
2023-02-19T02:42:00.377Z,6.44
2023-02-19T02:43:00.363Z,6.44
2023-02-19T02:44:00.356Z,6.43
2023-02-19T02:45:00.676Z,6.41
2023-02-19T02:46:00.338Z,6.41
2023-02-19T02:47:00.301Z,6.38
2023-02-19T02:48:00.267Z,6.40
2023-02-19T02:49:00.317Z,6.36
2023-02-19T02:50:00.268Z,6.35
2023-02-19T02:51:00.325Z,6.30
2023-02-19T02:52:00.261Z,6.29
2023-02-19T02:53:00.280Z,6.26
2023-02-19T02:54:00.190Z,6.26
2023-02-19T02:55:02.562Z,6.21
2023-02-19T02:56:00.218Z,6.21
2023-02-19T02:57:00.930Z,6.21
2023-02-19T02:58:01.593Z,6.11
2023-02-19T02:59:01.124Z,6.04
2023-02-19T03:00:00.238Z,6.01
2023-02-19T03:01:00.178Z,5.95
2023-02-19T03:02:00.184Z,5.91
2023-02-19T03:03:00.073Z,5.88
2023-02-19T03:04:00.650Z,5.85
2023-02-19T03:05:00.095Z,5.82
2023-02-19T03:06:00.173Z,5.78
2023-02-19T03:07:00.213Z,5.78
2023-02-19T03:08:00.069Z,5.71
2023-02-19T03:09:00.032Z,5.68
2023-02-19T03:10:00.156Z,5.64
2023-02-19T03:11:01.103Z,5.60
2023-02-19T03:11:59.984Z,5.59
2023-02-19T03:12:59.987Z,5.59
2023-02-19T03:13:59.955Z,5.56
2023-02-19T03:15:00.147Z,5.56
2023-02-19T03:15:59.901Z,5.53
2023-02-19T03:17:00.897Z,5.49
2023-02-19T03:17:59.875Z,5.46
2023-02-19T03:19:00.584Z,5.45
2023-02-19T03:19:59.855Z,5.41
2023-02-19T03:20:59.943Z,5.38
2023-02-19T03:21:59.931Z,5.37
2023-02-19T03:22:59.830Z,5.35
2023-02-19T03:24:00.610Z,5.34
2023-02-19T03:24:59.866Z,5.31
2023-02-19T03:25:59.842Z,5.27
2023-02-19T03:27:00.723Z,5.25
2023-02-19T03:28:01.013Z,5.22
2023-02-19T03:28:59.873Z,5.23
2023-02-19T03:30:00.822Z,5.25
2023-02-19T03:30:59.791Z,5.25
2023-02-19T03:32:00.762Z,5.22
2023-02-19T03:32:59.723Z,5.22
2023-02-19T03:33:59.703Z,5.20
2023-02-19T03:34:59.724Z,5.17
2023-02-19T03:35:59.721Z,5.13
2023-02-19T03:36:59.642Z,5.12
2023-02-19T03:37:59.641Z,5.07
2023-02-19T03:38:59.691Z,5.05
2023-02-19T03:40:00.389Z,5.04
2023-02-19T03:40:59.609Z,5.02
2023-02-19T03:42:00.687Z,5.02
2023-02-19T03:42:59.696Z,5.01
2023-02-19T03:44:00.516Z,5.01
2023-02-19T03:45:00.403Z,4.99
2023-02-19T03:45:59.603Z,4.99
2023-02-19T03:46:59.625Z,4.98
2023-02-19T03:47:59.527Z,4.96
2023-02-19T03:48:59.479Z,4.96
2023-02-19T03:49:59.519Z,4.92
2023-02-19T03:50:59.494Z,4.91
2023-02-19T03:52:00.153Z,4.91
2023-02-19T03:53:00.655Z,4.88
2023-02-19T03:53:59.436Z,4.86
2023-02-19T03:54:59.925Z,4.79
2023-02-19T03:56:00.379Z,4.80
2023-02-19T03:56:59.424Z,4.77
2023-02-19T03:57:59.392Z,4.77
2023-02-19T03:58:59.431Z,4.77
2023-02-19T03:59:59.362Z,4.73
2023-02-19T04:00:59.353Z,4.70
2023-02-19T04:01:59.332Z,4.70
2023-02-19T04:02:59.373Z,4.70
2023-02-19T04:03:59.341Z,4.67
2023-02-19T04:04:59.761Z,4.65
2023-02-19T04:05:59.273Z,4.62
2023-02-19T04:06:59.873Z,4.62
2023-02-19T04:07:59.290Z,4.58
2023-02-19T04:08:59.283Z,4.57
2023-02-19T04:10:00.057Z,4.54
2023-02-19T04:10:59.316Z,4.52
2023-02-19T04:11:59.245Z,4.51
2023-02-19T04:12:59.343Z,4.51
2023-02-19T04:13:59.194Z,4.50
2023-02-19T04:14:59.247Z,4.46
2023-02-19T04:15:59.161Z,4.46
2023-02-19T04:16:59.239Z,4.43
2023-02-19T04:18:00.274Z,4.43
2023-02-19T04:18:59.117Z,4.40
2023-02-19T04:19:59.240Z,4.42
2023-02-19T04:20:59.134Z,4.43
2023-02-19T04:21:59.117Z,4.42
2023-02-19T04:22:59.098Z,4.39
2023-02-19T04:23:59.069Z,4.39
2023-02-19T04:24:59.056Z,4.37
2023-02-19T04:25:59.031Z,4.32
2023-02-19T04:26:59.029Z,4.32
2023-02-19T04:27:59.149Z,4.29
2023-02-19T04:28:59.216Z,4.26
2023-02-19T04:29:59.067Z,4.26
2023-02-19T04:30:59.076Z,4.26
2023-02-19T04:31:59.003Z,4.28
2023-02-19T04:32:59.896Z,4.26
2023-02-19T04:33:58.926Z,4.24
2023-02-19T04:34:59.342Z,4.18
2023-02-19T04:35:58.943Z,4.14
2023-02-19T04:36:58.888Z,4.08
2023-02-19T04:37:58.895Z,4.03
2023-02-19T04:38:59.659Z,4.00
2023-02-19T04:39:59.741Z,3.97
2023-02-19T04:40:58.864Z,3.94
2023-02-19T04:41:58.957Z,3.90
2023-02-19T04:42:58.822Z,3.88
2023-02-19T04:43:58.921Z,3.88
2023-02-19T04:44:58.801Z,3.86
2023-02-19T04:45:58.842Z,3.88
2023-02-19T04:46:58.765Z,3.82
2023-02-19T04:47:58.748Z,3.80
2023-02-19T04:48:58.858Z,3.78
2023-02-19T04:49:58.717Z,3.72
2023-02-19T04:50:58.712Z,3.76
2023-02-19T04:51:58.707Z,3.72
2023-02-19T04:52:58.708Z,3.71
2023-02-19T04:53:58.663Z,3.65
2023-02-19T04:54:58.657Z,3.62
2023-02-19T04:55:58.649Z,3.60
2023-02-19T04:56:58.658Z,3.61
2023-02-19T04:57:58.635Z,3.58
2023-02-19T04:58:58.655Z,3.54
2023-02-19T04:59:58.608Z,3.52
2023-02-19T05:00:58.585Z,3.50
2023-02-19T05:01:58.597Z,3.49
2023-02-19T05:02:58.812Z,3.46
2023-02-19T05:03:59.515Z,3.40
2023-02-19T05:04:58.624Z,3.33
2023-02-19T05:05:59.064Z,3.31
2023-02-19T05:06:58.532Z,3.30
2023-02-19T05:07:58.672Z,3.30
2023-02-19T05:08:58.557Z,3.33
2023-02-19T05:09:59.407Z,3.28
2023-02-19T05:10:58.515Z,3.27
2023-02-19T05:11:58.579Z,3.27
2023-02-19T05:12:58.479Z,3.21
2023-02-19T05:13:58.683Z,3.15
2023-02-19T05:14:58.930Z,3.15
2023-02-19T05:15:59.417Z,3.06
2023-02-19T05:16:58.562Z,3.05
2023-02-19T05:17:58.377Z,3.05
2023-02-19T05:18:58.363Z,3.05
2023-02-19T05:19:58.330Z,3.05
2023-02-19T05:20:58.357Z,3.02
2023-02-19T05:21:59.297Z,3.02
2023-02-19T05:22:58.317Z,3.02
2023-02-19T05:23:59.091Z,3.03
2023-02-19T05:24:58.301Z,3.03
2023-02-19T05:25:59.410Z,3.05
2023-02-19T05:26:59.079Z,3.02
2023-02-19T05:27:58.331Z,3.03
2023-02-19T05:28:58.288Z,3.00
2023-02-19T05:29:58.252Z,3.02
2023-02-19T05:30:58.441Z,3.00
2023-02-19T05:31:59.355Z,2.98
2023-02-19T05:32:58.262Z,2.98
2023-02-19T05:33:58.181Z,2.98
2023-02-19T05:34:58.807Z,3.00
2023-02-19T05:35:58.151Z,2.97
2023-02-19T05:36:58.129Z,2.98
2023-02-19T05:37:58.110Z,2.98
2023-02-19T05:38:58.142Z,3.00
2023-02-19T05:39:58.119Z,3.00
2023-02-19T05:40:58.101Z,2.98
2023-02-19T05:41:58.060Z,3.00
2023-02-19T05:42:58.840Z,3.00
2023-02-19T05:43:58.054Z,3.02
2023-02-19T05:44:58.149Z,3.02
2023-02-19T05:45:58.009Z,3.06
2023-02-19T05:46:58.012Z,3.05
2023-02-19T05:47:58.115Z,3.05
2023-02-19T05:48:58.032Z,3.07
2023-02-19T05:49:57.991Z,3.09
2023-02-19T05:50:57.984Z,3.09
2023-02-19T05:51:58.964Z,3.09
2023-02-19T05:52:57.902Z,3.10
2023-02-19T05:53:57.918Z,3.09
2023-02-19T05:54:57.907Z,3.12
2023-02-19T05:55:57.865Z,3.12
2023-02-19T05:56:57.925Z,3.12
2023-02-19T05:57:58.892Z,3.13
2023-02-19T05:58:57.861Z,3.12
2023-02-19T05:59:58.270Z,3.13
2023-02-19T06:00:57.842Z,3.13
2023-02-19T06:01:58.129Z,3.13
2023-02-19T06:02:57.947Z,3.13
2023-02-19T06:03:58.130Z,3.13
2023-02-19T06:04:57.776Z,3.13
2023-02-19T06:05:57.774Z,3.13
2023-02-19T06:06:57.750Z,3.12
2023-02-19T06:07:57.716Z,3.10
2023-02-19T06:08:57.691Z,3.10
2023-02-19T06:09:57.744Z,3.10
2023-02-19T06:10:57.685Z,3.07
2023-02-19T06:11:57.694Z,3.07
2023-02-19T06:12:58.480Z,3.06
2023-02-19T06:13:57.984Z,3.05
2023-02-19T06:14:57.704Z,3.06
2023-02-19T06:15:57.708Z,3.03
2023-02-19T06:16:57.657Z,3.02
2023-02-19T06:17:57.604Z,3.02
2023-02-19T06:18:57.607Z,2.95
2023-02-19T06:19:57.575Z,2.95
2023-02-19T06:20:57.594Z,2.97
2023-02-19T06:21:57.603Z,2.95
2023-02-19T06:22:57.538Z,2.95
2023-02-19T06:23:57.529Z,2.97
2023-02-19T06:24:57.539Z,2.98
2023-02-19T06:25:57.556Z,2.97
2023-02-19T06:26:57.571Z,3.00
2023-02-19T06:27:57.997Z,3.02
2023-02-19T06:28:57.470Z,3.02
2023-02-19T06:29:57.471Z,3.02
2023-02-19T06:30:57.929Z,3.02
2023-02-19T06:31:57.595Z,3.03
2023-02-19T06:32:57.392Z,3.03
2023-02-19T06:33:57.410Z,3.05
2023-02-19T06:34:57.375Z,3.05
2023-02-19T06:35:57.428Z,3.06
2023-02-19T06:36:57.977Z,3.06
2023-02-19T06:37:57.398Z,3.06
2023-02-19T06:38:57.449Z,3.10
2023-02-19T06:39:57.329Z,3.10
2023-02-19T06:40:57.372Z,3.09
2023-02-19T06:41:57.496Z,3.09
2023-02-19T06:42:57.293Z,3.10
2023-02-19T06:43:58.734Z,3.10
2023-02-19T06:44:57.331Z,3.10
2023-02-19T06:45:57.274Z,3.10
2023-02-19T06:46:57.561Z,3.10
2023-02-19T06:47:57.256Z,3.13
2023-02-19T06:48:57.194Z,3.16
2023-02-19T06:49:57.186Z,3.13
2023-02-19T06:50:57.181Z,3.13
2023-02-19T06:51:57.167Z,3.12
2023-02-19T06:52:57.179Z,3.13
2023-02-19T06:53:57.159Z,3.12
2023-02-19T06:54:58.628Z,3.10
2023-02-19T06:55:57.158Z,3.13
2023-02-19T06:56:57.141Z,3.13
2023-02-19T06:57:57.686Z,3.12
2023-02-19T06:58:57.080Z,3.15
2023-02-19T06:59:57.063Z,3.18
2023-02-19T07:00:57.115Z,3.20
2023-02-19T07:01:57.028Z,3.23
2023-02-19T07:02:57.125Z,3.18
2023-02-19T07:03:57.064Z,3.16
2023-02-19T07:04:57.015Z,3.15
2023-02-19T07:05:56.999Z,3.13
2023-02-19T07:06:57.076Z,3.15
2023-02-19T07:07:57.815Z,3.15
2023-02-19T07:08:57.042Z,3.16
2023-02-19T07:09:56.933Z,3.15
2023-02-19T07:10:56.915Z,3.16
2023-02-19T07:11:56.906Z,3.18
2023-02-19T07:12:56.899Z,3.20
2023-02-19T07:13:56.922Z,3.20
2023-02-19T07:14:56.871Z,3.20
2023-02-19T07:15:56.866Z,3.23
2023-02-19T07:16:56.885Z,3.24
2023-02-19T07:17:56.867Z,3.21
2023-02-19T07:18:57.155Z,3.21
2023-02-19T07:19:56.814Z,3.24
2023-02-19T07:20:56.804Z,3.23
2023-02-19T07:21:56.810Z,3.23
2023-02-19T07:22:56.777Z,3.25
2023-02-19T07:23:56.756Z,3.28
2023-02-19T07:24:56.757Z,3.33
2023-02-19T07:25:56.717Z,3.36
2023-02-19T07:26:56.706Z,3.39
2023-02-19T07:27:56.681Z,3.40
2023-02-19T07:28:56.915Z,3.40
2023-02-19T07:29:56.683Z,3.43
2023-02-19T07:30:56.779Z,3.43
2023-02-19T07:31:56.903Z,3.46
2023-02-19T07:32:56.679Z,3.46
2023-02-19T07:33:56.622Z,3.47
2023-02-19T07:34:56.605Z,3.52
2023-02-19T07:35:56.627Z,3.57
2023-02-19T07:36:56.617Z,3.61
2023-02-19T07:37:56.601Z,3.62
2023-02-19T07:38:56.592Z,3.65
2023-02-19T07:39:56.547Z,3.60
2023-02-19T07:40:56.690Z,3.62
2023-02-19T07:41:56.788Z,3.65
2023-02-19T07:42:56.512Z,3.68
2023-02-19T07:43:56.517Z,3.72
2023-02-19T07:44:57.921Z,3.76
2023-02-19T07:45:56.542Z,3.76
2023-02-19T07:46:56.473Z,3.71
2023-02-19T07:47:56.450Z,3.71
2023-02-19T07:48:56.445Z,3.72
2023-02-19T07:49:56.431Z,3.75
2023-02-19T07:50:56.407Z,3.71
2023-02-19T07:51:56.402Z,3.68
2023-02-19T07:52:56.378Z,3.71
2023-02-19T07:53:56.378Z,3.71
2023-02-19T07:54:56.424Z,3.76
2023-02-19T07:55:56.354Z,3.76
2023-02-19T07:56:57.311Z,3.79
2023-02-19T07:57:56.333Z,3.82
2023-02-19T07:58:56.307Z,3.86
2023-02-19T07:59:56.312Z,3.89
2023-02-19T08:00:56.328Z,3.88
2023-02-19T08:01:56.314Z,3.83
2023-02-19T08:02:56.327Z,3.83
2023-02-19T08:03:56.267Z,3.88
2023-02-19T08:04:56.366Z,3.96
2023-02-19T08:05:56.213Z,3.90
2023-02-19T08:06:56.249Z,3.79
2023-02-19T08:07:56.237Z,3.80
2023-02-19T08:08:57.110Z,3.82
2023-02-19T08:09:56.207Z,3.85
2023-02-19T08:10:56.174Z,3.88
2023-02-19T08:11:56.225Z,3.85
2023-02-19T08:12:56.242Z,3.83
2023-02-19T08:13:56.115Z,3.85
2023-02-19T08:14:56.116Z,3.88
2023-02-19T08:16:01.704Z,3.90
2023-02-19T08:16:57.153Z,3.90
2023-02-19T08:17:56.068Z,3.94
2023-02-19T08:18:56.065Z,3.96
2023-02-19T08:19:57.049Z,4.03
2023-02-19T08:20:56.047Z,4.08
2023-02-19T08:21:56.048Z,4.16
2023-02-19T08:22:55.995Z,4.21
2023-02-19T08:23:56.587Z,4.19
2023-02-19T08:24:56.008Z,4.25
2023-02-19T08:25:56.020Z,4.29
2023-02-19T08:26:55.985Z,4.39
2023-02-19T08:27:55.937Z,4.47
2023-02-19T08:28:55.937Z,4.47
2023-02-19T08:29:55.915Z,4.43
2023-02-19T08:30:55.930Z,4.44
2023-02-19T08:31:55.937Z,4.51
2023-02-19T08:32:55.869Z,4.52
2023-02-19T08:33:56.557Z,4.62
2023-02-19T08:34:55.845Z,4.58
2023-02-19T08:35:55.884Z,4.47
2023-02-19T08:36:55.955Z,4.42
2023-02-19T08:37:55.816Z,4.32
2023-02-19T08:38:55.802Z,4.28
2023-02-19T08:39:55.908Z,4.33
2023-02-19T08:40:55.786Z,4.32
2023-02-19T08:41:55.759Z,4.32
2023-02-19T08:42:55.740Z,4.37
2023-02-19T08:43:55.790Z,4.44
2023-02-19T08:44:55.788Z,4.51
2023-02-19T08:45:55.774Z,4.46
2023-02-19T08:46:55.709Z,4.46
2023-02-19T08:47:55.725Z,4.44
2023-02-19T08:48:55.689Z,4.40
2023-02-19T08:49:55.661Z,4.39
2023-02-19T08:50:55.668Z,4.43
2023-02-19T08:51:55.712Z,4.37
2023-02-19T08:52:55.739Z,4.37
2023-02-19T08:53:55.615Z,4.40
2023-02-19T08:54:55.614Z,4.39
2023-02-19T08:55:55.615Z,4.39
2023-02-19T08:56:55.639Z,4.40
2023-02-19T08:57:55.660Z,4.33
2023-02-19T08:58:55.545Z,4.32
2023-02-19T08:59:55.566Z,4.37
2023-02-19T09:00:55.524Z,4.43
2023-02-19T09:01:55.517Z,4.33
2023-02-19T09:02:55.487Z,4.34
2023-02-19T09:03:55.611Z,4.36
2023-02-19T09:04:55.454Z,4.39
2023-02-19T09:05:55.444Z,4.42
2023-02-19T09:06:56.637Z,4.43
2023-02-19T09:07:55.458Z,4.42
2023-02-19T09:08:55.466Z,4.43
2023-02-19T09:09:55.429Z,4.44
2023-02-19T09:10:55.648Z,4.47
2023-02-19T09:11:55.469Z,4.52
2023-02-19T09:12:55.971Z,4.62
2023-02-19T09:13:55.425Z,4.62
2023-02-19T09:14:55.344Z,4.69
2023-02-19T09:15:55.341Z,4.73
2023-02-19T09:16:55.397Z,4.79
2023-02-19T09:17:55.308Z,4.67
2023-02-19T09:18:55.306Z,4.69
2023-02-19T09:19:55.298Z,4.76
2023-02-19T09:20:55.259Z,4.73
2023-02-19T09:21:55.249Z,4.80
2023-02-19T09:22:55.272Z,4.91
2023-02-19T09:23:55.253Z,5.02
2023-02-19T09:24:55.261Z,5.14
2023-02-19T09:25:55.208Z,5.22
2023-02-19T09:26:55.281Z,5.04
2023-02-19T09:27:56.181Z,5.04
2023-02-19T09:28:55.264Z,5.07
2023-02-19T09:29:55.184Z,5.10
2023-02-19T09:30:55.346Z,5.07
2023-02-19T09:31:55.243Z,5.14
2023-02-19T09:32:55.144Z,5.09
2023-02-19T09:33:55.134Z,5.04
2023-02-19T09:34:55.108Z,5.02
2023-02-19T09:35:55.115Z,5.09
2023-02-19T09:36:55.063Z,5.16
2023-02-19T09:37:55.049Z,5.01
2023-02-19T09:38:55.087Z,5.02
2023-02-19T09:39:55.038Z,5.04
2023-02-19T09:40:55.107Z,5.05
2023-02-19T09:41:55.031Z,5.12
2023-02-19T09:42:54.991Z,5.17
2023-02-19T09:43:55.039Z,5.25
2023-02-19T09:44:55.006Z,5.40
2023-02-19T09:45:55.021Z,5.49
2023-02-19T09:46:54.947Z,5.35
2023-02-19T09:47:54.929Z,5.30
2023-02-19T09:48:55.008Z,5.37
2023-02-19T09:49:54.934Z,5.40
2023-02-19T09:50:54.896Z,5.48
2023-02-19T09:51:54.877Z,5.49
2023-02-19T09:52:54.980Z,5.40
2023-02-19T09:53:54.888Z,5.35
2023-02-19T09:54:57.201Z,5.28
2023-02-19T09:55:54.886Z,5.23
2023-02-19T09:56:54.866Z,5.28
2023-02-19T09:57:54.790Z,5.34
2023-02-19T09:58:54.810Z,5.37
2023-02-19T09:59:54.802Z,5.40
2023-02-19T10:00:54.784Z,5.49
2023-02-19T10:01:54.842Z,5.55
2023-02-19T10:02:54.718Z,5.55
2023-02-19T10:03:54.741Z,5.63
2023-02-19T10:04:54.808Z,5.73
2023-02-19T10:05:54.719Z,5.88
2023-02-19T10:06:54.695Z,5.81
2023-02-19T10:07:54.698Z,5.85
2023-02-19T10:08:54.677Z,6.01
2023-02-19T10:09:54.787Z,6.13
2023-02-19T10:10:54.615Z,6.28
2023-02-19T10:11:54.606Z,6.40
2023-02-19T10:12:54.656Z,6.41
2023-02-19T10:13:54.758Z,6.22
2023-02-19T10:14:54.967Z,6.00
2023-02-19T10:15:54.649Z,5.98
2023-02-19T10:16:54.545Z,6.10
2023-02-19T10:17:54.616Z,6.16
2023-02-19T10:18:54.538Z,6.28
2023-02-19T10:19:54.508Z,6.26
2023-02-19T10:20:54.498Z,6.13
2023-02-19T10:21:54.498Z,6.10
2023-02-19T10:22:54.498Z,6.03
2023-02-19T10:23:54.451Z,5.95
2023-02-19T10:24:54.498Z,5.86
2023-02-19T10:25:55.701Z,5.73
2023-02-19T10:26:54.468Z,5.68
2023-02-19T10:27:54.429Z,5.67
2023-02-19T10:28:54.414Z,5.74
2023-02-19T10:29:54.380Z,5.85
2023-02-19T10:30:54.443Z,5.95
2023-02-19T10:31:54.592Z,6.09
2023-02-19T10:32:54.330Z,6.13
2023-02-19T10:33:54.349Z,6.11
2023-02-19T10:34:54.350Z,6.01
2023-02-19T10:35:54.332Z,5.95
2023-02-19T10:36:54.308Z,5.98
2023-02-19T10:37:54.274Z,6.01
2023-02-19T10:38:54.273Z,6.04
2023-02-19T10:39:54.394Z,6.06
2023-02-19T10:40:54.335Z,6.00
2023-02-19T10:41:54.327Z,6.00
2023-02-19T10:42:54.413Z,5.95
2023-02-19T10:43:54.238Z,5.85
2023-02-19T10:44:54.239Z,5.81
2023-02-19T10:45:54.213Z,5.89
2023-02-19T10:46:55.274Z,5.86
2023-02-19T10:47:54.169Z,5.77
2023-02-19T10:48:54.161Z,5.74
2023-02-19T10:49:54.154Z,5.73
2023-02-19T10:50:54.114Z,5.75
2023-02-19T10:51:54.134Z,5.71
2023-02-19T10:52:54.168Z,5.68
2023-02-19T10:53:54.130Z,5.59
2023-02-19T10:54:54.074Z,5.57
2023-02-19T10:55:54.162Z,5.55
2023-02-19T10:56:55.298Z,5.60
2023-02-19T10:57:54.097Z,5.63
2023-02-19T10:58:54.041Z,5.73
2023-02-19T10:59:54.250Z,5.78
2023-02-19T11:00:54.063Z,5.83
2023-02-19T11:01:54.847Z,5.89
2023-02-19T11:02:53.989Z,6.01
2023-02-19T11:03:54.039Z,6.11
2023-02-19T11:04:53.973Z,6.26
2023-02-19T11:05:55.556Z,6.38
2023-02-19T11:06:54.279Z,6.48
2023-02-19T11:07:54.542Z,6.58
2023-02-19T11:08:55.183Z,6.59
2023-02-19T11:09:55.062Z,6.59
2023-02-19T11:10:54.960Z,6.63
2023-02-19T11:11:53.875Z,6.56
2023-02-19T11:12:53.846Z,6.43
2023-02-19T11:13:53.837Z,6.35
2023-02-19T11:14:53.808Z,6.35
2023-02-19T11:15:53.853Z,6.29
2023-02-19T11:16:53.827Z,6.21
2023-02-19T11:17:53.886Z,6.13
2023-02-19T11:18:55.944Z,6.13
2023-02-19T11:19:54.028Z,6.14
2023-02-19T11:20:53.770Z,6.16
2023-02-19T11:21:54.161Z,6.16
2023-02-19T11:22:53.944Z,6.18
2023-02-19T11:23:53.666Z,6.28
2023-02-19T11:24:57.324Z,6.44
2023-02-19T11:25:53.667Z,6.65
2023-02-19T11:26:53.640Z,6.66
2023-02-19T11:27:53.675Z,6.71
2023-02-19T11:28:53.606Z,6.86
2023-02-19T11:29:53.619Z,6.99
2023-02-19T11:30:53.599Z,7.17
2023-02-19T11:31:54.622Z,7.15
2023-02-19T11:32:53.649Z,7.19
2023-02-19T11:33:53.583Z,7.20
2023-02-19T11:34:54.300Z,7.20
2023-02-19T11:35:54.502Z,7.19
2023-02-19T11:36:53.549Z,7.16
2023-02-19T11:37:53.598Z,7.24
2023-02-19T11:38:53.520Z,7.19
2023-02-19T11:39:53.473Z,7.20
2023-02-19T11:40:53.537Z,7.20
2023-02-19T11:41:53.446Z,7.20
2023-02-19T11:42:53.550Z,7.26
2023-02-19T11:43:53.472Z,7.34
2023-02-19T11:44:53.495Z,7.29
2023-02-19T11:45:53.435Z,7.23
2023-02-19T11:46:53.428Z,7.12
2023-02-19T11:47:53.553Z,7.04
2023-02-19T11:48:53.433Z,7.05
2023-02-19T11:49:53.349Z,7.08
2023-02-19T11:50:53.604Z,7.15
2023-02-19T11:51:53.352Z,7.15
2023-02-19T11:52:53.319Z,7.07
2023-02-19T11:53:53.315Z,7.05
2023-02-19T11:54:54.784Z,6.97
2023-02-19T11:55:53.315Z,6.90
2023-02-19T11:56:53.279Z,6.86
2023-02-19T11:57:53.305Z,6.77
2023-02-19T11:58:53.340Z,6.68
2023-02-19T11:59:53.217Z,6.68
2023-02-19T12:00:53.422Z,6.65
2023-02-19T12:01:53.299Z,6.68
2023-02-19T12:02:53.198Z,6.61
2023-02-19T12:03:53.282Z,6.58
2023-02-19T12:04:53.220Z,6.59
2023-02-19T12:05:53.216Z,6.59
2023-02-19T12:06:53.325Z,6.59
2023-02-19T12:07:53.254Z,6.56
2023-02-19T12:08:53.635Z,6.58
2023-02-19T12:09:53.115Z,6.61
2023-02-19T12:10:53.116Z,6.66
2023-02-19T12:11:53.129Z,6.79
2023-02-19T12:12:53.108Z,6.83
2023-02-19T12:13:53.697Z,6.95
2023-02-19T12:14:53.197Z,7.04
2023-02-19T12:16:53.045Z,7.16
2023-02-19T12:17:53.022Z,7.27
2023-02-19T12:18:52.977Z,7.31
2023-02-19T12:19:52.982Z,7.27
2023-02-19T12:20:52.976Z,7.26
2023-02-19T12:21:52.986Z,7.37
2023-02-19T12:22:52.924Z,7.44
2023-02-19T12:23:52.928Z,7.49
2023-02-19T12:24:52.890Z,7.44
2023-02-19T12:25:53.240Z,7.42
2023-02-19T12:26:52.935Z,7.40
2023-02-19T12:27:52.869Z,7.44
2023-02-19T12:28:52.847Z,7.49
2023-02-19T12:29:52.901Z,7.52
2023-02-19T12:30:52.822Z,7.50
2023-02-19T12:31:52.860Z,7.49
2023-02-19T12:32:53.701Z,7.53
2023-02-19T12:33:52.819Z,7.55
2023-02-19T12:34:53.263Z,7.49
2023-02-19T12:35:52.820Z,7.56
2023-02-19T12:36:52.740Z,7.66
2023-02-19T12:37:52.803Z,7.74
2023-02-19T12:38:52.762Z,7.60
2023-02-19T12:39:52.694Z,7.59
2023-02-19T12:40:52.682Z,7.63
2023-02-19T12:41:52.730Z,7.59
2023-02-19T12:42:52.683Z,7.59
2023-02-19T12:43:52.677Z,7.55
2023-02-19T12:44:52.635Z,7.56
2023-02-19T12:45:52.793Z,7.63
2023-02-19T12:46:52.619Z,7.74
2023-02-19T12:47:52.663Z,7.67
2023-02-19T12:48:52.618Z,7.60
2023-02-19T12:49:52.570Z,7.56
2023-02-19T12:50:52.585Z,7.53
2023-02-19T12:51:52.555Z,7.52
2023-02-19T12:52:52.556Z,7.58
2023-02-19T12:53:53.044Z,7.63
2023-02-19T12:54:54.822Z,7.69
2023-02-19T12:55:53.589Z,7.66
2023-02-19T12:56:52.655Z,7.55
2023-02-19T12:57:52.490Z,7.47
2023-02-19T12:58:52.486Z,7.47
2023-02-19T12:59:52.468Z,7.37
2023-02-19T13:00:52.674Z,7.37
2023-02-19T13:01:52.517Z,7.38
2023-02-19T13:02:52.421Z,7.31
2023-02-19T13:03:52.389Z,7.31
2023-02-19T13:04:52.390Z,7.35
2023-02-19T13:05:52.370Z,7.37
2023-02-19T13:06:52.393Z,7.44
2023-02-19T13:07:53.459Z,7.49
2023-02-19T13:09:05.765Z,7.50
2023-02-19T13:09:53.397Z,7.56
2023-02-19T13:10:52.325Z,7.55
2023-02-19T13:11:52.296Z,7.66
2023-02-19T13:12:52.353Z,7.72
2023-02-19T13:13:52.414Z,7.77
2023-02-19T13:14:52.252Z,7.77
2023-02-19T13:15:52.410Z,7.74
2023-02-19T13:16:52.298Z,7.66
2023-02-19T13:17:52.288Z,7.67
2023-02-19T13:18:52.216Z,7.74